To NAV CANADA Home Page Login to a new session Search on AWWS site Feedback and Comments Disclaimer Vers la page française équivalente Tips FAQ What's new on the site To the Forecasts and Observations / NOTAM section To "File a Flight Plan" website Publications and other links Update of the User's profile FIC Telephone Numbers My Weather Data Folder Route Weather Data Regional Weather Data Local Weather Data To the Forecasts and Observations / NOTAM section
Request Generated 10/17/2017 at 01:50:55 UTC . Weather information available at that time is displayed.

METAR/TAF

CHURCHILL/MB    (show WxCam)

METAR CYYQ 170100Z 05014KT 5SM -SN FEW006 OVC016 00/M00 A2962 RMK
SF2SC6 SLP033=
SPECI CYYQ 170033Z 06010G15KT 3SM -SN SCT005 BKN013 OVC021 00/M00
A2961 RMK SF3ST3SC2 SLP030=
SPECI CYYQ 170026Z 06012KT 2SM -SN SCT005 BKN011 OVC022 00/00 A2960
RMK SF3ST3SC2 SLP029=
METAR CYYQ 170000Z 03009KT 10SM -SN FEW014 OVC060 01/M00 A2959 RMK
SC2SC6 SLP025=
METAR CYYQ 162300Z 04006KT 15SM -SN FEW006 OVC060 01/M01 A2958 RMK
SF2SC6 SLP021=

TAF AMD CYYQ 170034Z 1700/1724 04006KT P6SM SCT015 OVC025 TEMPO
1700/1703 11/2SM -SN SCT005 BKN015 OVC060
FM170300 01012KT P6SM SCT005 BKN025 TEMPO 1703/1709 4SM -SN BR
SCT005 OVC012
FM170900 32010KT P6SM BKN008 OVC015
FM171800 25010KT P6SM BKN012 BKN025
FM172100 15010KT P6SM SCT015 BKN030
RMK NXT FCST BY 170600Z=
Your time UTC time
Weather data provided by Environment Canada and NAV CANADA